Crary Mills, New York
Current Conditions -  °F | °C
As of 3:53 AM on Tuesday 21 Oct 2014 (Local Time) from KMSS Reporting Station
Light Rain Light Rain  
Wind Chill: 39°   Ceiling: 3600
Heat Index: 44°   Visibility: 7mi
Dew Point: 42°   Wind: 9mph
Humidity: 93%   Direction: 50°NE
Pressure: 29.9"   Gusts: NA
Location:  44.5792°N, 75.1592°W
Report Text: KMSS 210753Z AUTO 05008KT 7SM -RA BKN036 OVC050 07/06 A2990 RMK AO2 SLP128 P0001 T00670056
Loading
Personal Weather Stations






























Interactive Weather Map
Tropical Storm Tracking
New forecast layout! Learn more

10-Day Weather Forecast

Advertisements
Track Severe Weather on mobile